Time;durP1;ratioP1;P1;durP2;ratioP2;P2;SDS_P1;SDS_P2;PMS_P1;PMS_P2;Temp;Humidity;BMP_temperature;BMP_pressure;BME280_temperature;BME280_humidity;BME280_pressure;Samples;Min_cycle;Max_cycle;Signal;HPM_P1;HPM_P2
2022/12/24 00:01:19;;;;;;;14.25;7.15;;;9.00;99.90;;;;;;5103234;28;20123;-51
2022/12/24 00:03:44;;;;;;;17.60;7.65;;;8.50;99.90;;;;;;5103529;28;20110;-49
2022/12/24 00:06:18;;;;;;;17.30;7.40;;;8.50;99.90;;;;;;5103817;28;20570;-53
2022/12/24 00:08:44;;;;;;;13.68;7.55;;;9.00;99.90;;;;;;5103804;28;20072;-49
2022/12/24 00:11:10;;;;;;;14.32;6.85;;;8.50;99.90;;;;;;5102946;27;20402;-50
2022/12/24 00:13:35;;;;;;;16.45;6.82;;;8.60;99.90;;;;;;5104981;27;20104;-50
2022/12/24 00:16:01;;;;;;;15.90;6.32;;;8.60;99.90;;;;;;5102581;28;20046;-50
2022/12/24 00:18:27;;;;;;;13.68;6.80;;;8.40;99.90;;;;;;5103618;28;20069;-51
2022/12/24 00:20:53;;;;;;;18.58;6.32;;;8.40;99.90;;;;;;5104369;28;20063;-50
2022/12/24 00:23:19;;;;;;;15.20;6.45;;;8.90;99.90;;;;;;5103875;28;20040;-47
2022/12/24 00:25:44;;;;;;;17.27;6.32;;;8.90;99.90;;;;;;5103847;28;20073;-48
2022/12/24 00:28:11;;;;;;;16.55;6.28;;;8.50;99.90;;;;;;5104258;28;20027;-50
2022/12/24 00:30:38;;;;;;;13.25;6.35;;;8.70;99.90;;;;;;5101378;28;20076;-51
2022/12/24 00:33:04;;;;;;;18.60;6.05;;;8.40;99.90;;;;;;5103781;28;20076;-50
2022/12/24 00:35:32;;;;;;;14.93;6.28;;;8.90;99.90;;;;;;5103831;28;20078;-50
2022/12/24 00:37:57;;;;;;;14.98;6.55;;;9.00;99.90;;;;;;5103524;27;20052;-52
2022/12/24 00:40:23;;;;;;;19.38;7.47;;;9.00;99.90;;;;;;5102881;28;20032;-52
2022/12/24 00:42:49;;;;;;;14.00;7.03;;;8.40;99.90;;;;;;5103882;27;20036;-51
2022/12/24 00:45:14;;;;;;;11.93;6.15;;;8.70;99.90;;;;;;5102925;28;20036;-49
2022/12/24 00:47:40;;;;;;;14.10;6.05;;;9.00;99.90;;;;;;5103966;27;20645;-50
2022/12/24 00:50:06;;;;;;;11.18;5.72;;;9.00;99.90;;;;;;5103223;28;20375;-48
2022/12/24 00:52:32;;;;;;;12.70;5.38;;;8.80;99.90;;;;;;5102766;28;20043;-52
2022/12/24 00:54:58;;;;;;;8.80;4.47;;;8.80;99.90;;;;;;5103372;28;20553;-50
2022/12/24 00:57:23;;;;;;;12.27;4.13;;;8.80;99.90;;;;;;5102905;28;20028;-49
2022/12/24 00:59:49;;;;;;;6.75;4.05;;;8.70;99.90;;;;;;5102070;28;20047;-52
2022/12/24 01:02:15;;;;;;;10.07;3.92;;;8.80;99.90;;;;;;5103199;28;20035;-49
2022/12/24 01:07:25;;;;;;;14.63;4.78;;;8.50;99.90;;;;;;5102368;27;20043;-49
2022/12/24 01:09:50;;;;;;;16.27;5.25;;;8.40;99.90;;;;;;5101580;28;20031;-50
2022/12/24 01:12:16;;;;;;;16.67;5.40;;;8.80;99.90;;;;;;5102060;28;20047;-52
2022/12/24 01:14:42;;;;;;;19.73;5.15;;;9.00;99.90;;;;;;5101924;28;20561;-52
2022/12/24 01:17:08;;;;;;;24.40;6.47;;;8.90;99.90;;;;;;5103144;28;20134;-52
2022/12/24 01:19:33;;;;;;;29.40;5.60;;;8.90;99.90;;;;;;5102319;27;20128;-50
2022/12/24 01:21:59;;;;;;;40.33;6.72;;;8.30;99.90;;;;;;5103252;27;20031;-48
2022/12/24 01:24:25;;;;;;;43.40;7.03;;;9.00;99.90;;;;;;5101151;28;20474;-50
2022/12/24 01:26:51;;;;;;;41.47;6.38;;;8.50;99.90;;;;;;5100420;28;20040;-49
2022/12/24 01:29:16;;;;;;;37.80;6.43;;;8.60;99.90;;;;;;5102893;28;20051;-52
2022/12/24 01:31:42;;;;;;;35.40;6.20;;;8.80;99.90;;;;;;5103565;27;20031;-49
2022/12/24 01:34:08;;;;;;;45.58;6.05;;;8.80;99.90;;;;;;5101291;28;20061;-49
2022/12/24 01:36:35;;;;;;;45.38;5.75;;;8.20;99.90;;;;;;5102785;28;20438;-47
2022/12/24 01:39:01;;;;;;;40.50;6.70;;;8.20;99.90;;;;;;5101376;27;20484;-49
2022/12/24 01:44:30;;;;;;;38.88;5.38;;;8.70;99.90;;;;;;5102140;28;20077;-51
2022/12/24 01:47:08;;;;;;;40.25;6.03;;;8.20;99.90;;;;;;5102105;28;20104;-50
2022/12/24 01:49:35;;;;;;;46.13;6.75;;;8.20;99.90;;;;;;5100252;28;20039;-50
2022/12/24 01:52:09;;;;;;;45.15;6.28;;;8.20;99.90;;;;;;5102483;28;20027;-48
2022/12/24 01:54:44;;;;;;;51.63;7.82;;;8.60;99.90;;;;;;5101712;28;20137;-48
2022/12/24 01:57:20;;;;;;;42.42;6.18;;;8.30;99.90;;;;;;5102614;27;20467;-50
2022/12/24 01:59:50;;;;;;;39.75;6.05;;;8.50;99.90;;;;;;5101630;28;20043;-49
2022/12/24 02:02:16;;;;;;;40.13;5.55;;;8.40;99.90;;;;;;5102281;27;20031;-50
2022/12/24 02:04:57;;;;;;;36.55;6.15;;;8.90;99.90;;;;;;5102460;28;20049;-49
2022/12/24 02:07:23;;;;;;;36.35;4.97;;;8.60;99.90;;;;;;5102563;28;20044;-47
2022/12/24 02:09:54;;;;;;;36.92;6.30;;;8.60;99.90;;;;;;5098792;28;20126;-51
2022/12/24 02:12:20;;;;;;;45.13;5.65;;;8.70;99.90;;;;;;5102698;28;20047;-48
2022/12/24 02:14:46;;;;;;;38.03;6.20;;;8.80;99.90;;;;;;5101710;28;20474;-49
2022/12/24 02:17:23;;;;;;;31.10;5.53;;;8.50;99.90;;;;;;5102000;28;20124;-51
2022/12/24 02:20:09;;;;;;;40.78;6.35;;;9.00;99.90;;;;;;5101957;28;20039;-48
2022/12/24 02:22:57;;;;;;;39.08;5.95;;;9.00;99.90;;;;;;5100511;28;20043;-48
2022/12/24 02:26:01;;;;;;;31.50;4.55;;;8.80;99.90;;;;;;5101113;28;20077;-48
2022/12/24 02:29:06;;;;;;;39.20;6.10;;;9.00;99.90;;;;;;5101254;28;20051;-49
2022/12/24 02:31:42;;;;;;;39.28;5.47;;;9.00;99.90;;;;;;5100281;28;21473;-49
2022/12/24 02:34:57;;;;;;;34.42;5.47;;;9.00;99.90;;;;;;5100798;28;20043;-49
2022/12/24 02:37:53;;;;;;;35.15;5.53;;;9.10;99.90;;;;;;5039898;28;20048;-46
2022/12/24 02:40:27;;;;;;;33.25;5.00;;;8.80;99.90;;;;;;5031580;28;20053;-50
2022/12/24 02:42:59;;;;;;;38.72;5.78;;;9.00;99.90;;;;;;5089020;28;20424;-53
2022/12/24 02:45:30;;;;;;;31.05;5.25;;;8.90;99.90;;;;;;5101723;28;20105;-50
2022/12/24 02:47:56;;;;;;;40.15;5.93;;;8.90;99.90;;;;;;5099585;28;20112;-50
2022/12/24 02:50:23;;;;;;;40.65;6.03;;;9.00;99.90;;;;;;5101957;28;20374;-49
2022/12/24 02:52:49;;;;;;;40.88;6.32;;;9.00;99.90;;;;;;5101372;28;20020;-49
2022/12/24 02:55:46;;;;;;;47.63;6.50;;;9.00;99.90;;;;;;5101209;28;20063;-51
2022/12/24 02:58:14;;;;;;;32.92;5.35;;;8.90;99.90;;;;;;5072233;28;20482;-47
2022/12/24 03:01:17;;;;;;;47.03;6.22;;;8.80;99.90;;;;;;5102249;28;20039;-50
2022/12/24 03:04:08;;;;;;;39.72;5.30;;;8.80;99.90;;;;;;5099462;28;20503;-47
2022/12/24 03:06:55;;;;;;;38.40;5.95;;;9.00;99.90;;;;;;5101530;28;20074;-48
2022/12/24 03:09:49;;;;;;;39.85;5.80;;;8.90;99.90;;;;;;5100232;28;20036;-50
2022/12/24 03:12:23;;;;;;;38.72;6.63;;;8.90;99.90;;;;;;5101251;28;21330;-48
2022/12/24 03:14:49;;;;;;;42.42;5.95;;;8.70;99.90;;;;;;5101532;28;20040;-47
2022/12/24 03:17:16;;;;;;;32.70;5.50;;;8.70;99.90;;;;;;5101869;28;20482;-53
2022/12/24 03:19:42;;;;;;;36.20;5.22;;;8.70;99.90;;;;;;5101418;28;20545;-49
2022/12/24 03:22:10;;;;;;;39.75;5.82;;;8.90;99.90;;;;;;5100446;28;20051;-48
2022/12/24 03:24:37;;;;;;;39.10;5.78;;;8.80;99.90;;;;;;5100762;28;20116;-49
2022/12/24 03:27:05;;;;;;;40.60;6.38;;;8.90;99.90;;;;;;5100170;28;20043;-47
2022/12/24 03:29:32;;;;;;;40.42;5.82;;;8.80;99.90;;;;;;5105287;28;20055;-46
2022/12/24 03:32:03;;;;;;;41.50;6.10;;;8.70;99.90;;;;;;5104154;28;20035;-48
2022/12/24 03:34:29;;;;;;;38.30;6.03;;;8.80;99.90;;;;;;5105077;28;20474;-47
2022/12/24 03:36:55;;;;;;;37.95;5.38;;;8.80;99.90;;;;;;5086348;28;20130;-50
2022/12/24 03:39:21;;;;;;;33.85;5.82;;;8.90;99.90;;;;;;5104798;27;20569;-50
2022/12/24 03:41:47;;;;;;;38.05;5.65;;;8.70;99.90;;;;;;5105687;28;20039;-48
2022/12/24 03:44:13;;;;;;;37.90;5.90;;;8.70;99.90;;;;;;5104363;27;20038;-47
2022/12/24 03:46:39;;;;;;;54.83;6.13;;;8.60;99.90;;;;;;5103693;28;20467;-50
2022/12/24 03:49:04;;;;;;;42.35;5.72;;;8.90;99.90;;;;;;5105166;28;20733;-47
2022/12/24 03:51:32;;;;;;;38.33;5.35;;;8.60;99.90;;;;;;5104558;28;20042;-51
2022/12/24 03:53:58;;;;;;;53.08;6.72;;;8.90;99.90;;;;;;5104686;28;20047;-49
2022/12/24 03:56:24;;;;;;;38.08;5.60;;;8.90;99.90;;;;;;5104722;27;20042;-49
2022/12/24 03:58:50;;;;;;;49.85;5.80;;;8.90;99.90;;;;;;5104381;28;20031;-47
2022/12/24 04:01:17;;;;;;;38.22;5.75;;;8.80;99.90;;;;;;5104547;27;20040;-48
2022/12/24 04:03:43;;;;;;;41.80;5.85;;;8.80;99.90;;;;;;5105221;28;20039;-48
2022/12/24 04:06:11;;;;;;;45.15;6.28;;;8.70;99.90;;;;;;5104938;28;20065;-47
2022/12/24 04:08:37;;;;;;;39.50;5.57;;;8.70;99.90;;;;;;5104573;28;20106;-49
2022/12/24 04:11:05;;;;;;;40.65;6.90;;;8.80;99.90;;;;;;5103680;28;20421;-48
2022/12/24 04:13:30;;;;;;;35.25;5.72;;;8.70;99.90;;;;;;5103779;28;20077;-49
2022/12/24 04:16:01;;;;;;;43.00;5.78;;;9.10;99.90;;;;;;5104260;28;20035;-50
2022/12/24 04:18:28;;;;;;;37.38;5.93;;;8.80;99.90;;;;;;5104424;27;20032;-48
2022/12/24 04:20:54;;;;;;;46.17;7.15;;;8.80;99.90;;;;;;5103789;28;20044;-47
2022/12/24 04:23:20;;;;;;;45.10;6.28;;;8.90;99.90;;;;;;5104277;28;20035;-48
2022/12/24 04:25:46;;;;;;;36.97;5.60;;;8.90;99.90;;;;;;5104515;28;20059;-49
2022/12/24 04:28:13;;;;;;;52.67;6.57;;;8.60;99.90;;;;;;5103830;28;20403;-48
2022/12/24 04:30:39;;;;;;;49.15;7.28;;;8.80;99.90;;;;;;5105096;28;20023;-48
2022/12/24 04:33:06;;;;;;;40.35;5.93;;;8.80;99.90;;;;;;5103208;27;21136;-47
2022/12/24 04:35:32;;;;;;;45.83;6.28;;;8.90;99.90;;;;;;5103755;28;20031;-47
2022/12/24 04:37:57;;;;;;;46.90;7.18;;;8.90;99.90;;;;;;5103325;28;20039;-50
2022/12/24 04:40:24;;;;;;;41.75;5.70;;;8.60;99.90;;;;;;5103908;27;20039;-46
2022/12/24 04:42:50;;;;;;;45.17;7.05;;;8.80;99.90;;;;;;5103701;27;20035;-51
2022/12/24 04:45:17;;;;;;;44.05;6.72;;;8.70;99.90;;;;;;5102878;28;20035;-49
2022/12/24 04:47:42;;;;;;;46.97;5.97;;;8.70;99.90;;;;;;5102854;28;20075;-48
2022/12/24 04:50:09;;;;;;;37.97;6.13;;;8.90;99.90;;;;;;5104399;27;20443;-49
2022/12/24 04:52:35;;;;;;;41.38;6.40;;;8.60;99.90;;;;;;5102946;28;20376;-48
2022/12/24 04:55:01;;;;;;;42.03;6.07;;;8.70;99.90;;;;;;5103371;28;20057;-47
2022/12/24 04:57:27;;;;;;;45.67;5.90;;;8.80;99.90;;;;;;5103449;28;20042;-50
2022/12/24 04:59:52;;;;;;;45.45;6.90;;;8.70;99.90;;;;;;5102675;28;20027;-50
2022/12/24 05:02:18;;;;;;;40.50;6.10;;;8.60;99.90;;;;;;5103123;28;20048;-47
2022/12/24 05:04:44;;;;;;;47.28;6.05;;;9.00;99.90;;;;;;5103145;28;23554;-49
2022/12/24 05:07:09;;;;;;;44.22;6.32;;;8.60;99.90;;;;;;5102522;28;20049;-48
2022/12/24 05:09:35;;;;;;;45.20;6.18;;;8.90;99.90;;;;;;5103092;28;20053;-48
2022/12/24 05:12:01;;;;;;;44.53;7.57;;;8.60;99.90;;;;;;5103358;28;20546;-47
2022/12/24 05:14:26;;;;;;;39.08;6.07;;;8.60;99.90;;;;;;5102884;28;20066;-48
2022/12/24 05:16:52;;;;;;;53.75;6.30;;;8.60;99.90;;;;;;5084560;28;20035;-49
2022/12/24 05:19:18;;;;;;;38.22;5.88;;;8.80;99.90;;;;;;5102831;28;20101;-49
2022/12/24 05:26:20;;;;;;;40.60;5.47;;;8.80;99.90;;;;;;5102883;28;20032;-48
2022/12/24 05:27:21;;;;;;;46.70;7.07;;;8.90;99.90;;;;;;5078504;28;20059;-47
2022/12/24 05:29:47;;;;;;;45.38;5.90;;;8.50;99.90;;;;;;5102786;28;20039;-48
2022/12/24 05:32:12;;;;;;;43.80;6.43;;;8.50;99.90;;;;;;5103283;28;20501;-50
2022/12/24 05:34:38;;;;;;;39.40;5.72;;;8.90;99.90;;;;;;5101718;28;20071;-50
2022/12/24 05:37:04;;;;;;;50.33;6.25;;;8.70;99.90;;;;;;5102633;28;20044;-48
2022/12/24 05:39:29;;;;;;;39.17;5.78;;;8.90;99.90;;;;;;5100957;28;20031;-51
2022/12/24 05:41:55;;;;;;;41.10;6.15;;;8.60;99.90;;;;;;5102406;27;20042;-48
2022/12/24 05:44:21;;;;;;;43.03;6.05;;;8.80;99.90;;;;;;5102991;27;20031;-47
2022/12/24 05:46:46;;;;;;;36.47;5.20;;;8.70;99.90;;;;;;5102138;28;20470;-47
2022/12/24 05:49:12;;;;;;;45.97;6.15;;;8.80;99.90;;;;;;5101732;28;20035;-47
2022/12/24 05:51:41;;;;;;;36.17;6.18;;;8.80;99.90;;;;;;5100294;28;20458;-47
2022/12/24 05:54:07;;;;;;;42.95;5.28;;;8.40;99.90;;;;;;5102598;28;20528;-50
2022/12/24 05:56:33;;;;;;;38.40;6.03;;;8.50;99.90;;;;;;5100148;28;20477;-48
2022/12/24 05:58:59;;;;;;;36.72;5.88;;;8.50;99.90;;;;;;5102392;28;20036;-47
2022/12/24 06:01:25;;;;;;;40.53;5.93;;;8.30;99.90;;;;;;5101508;28;20024;-48
2022/12/24 06:03:52;;;;;;;35.63;5.95;;;8.30;99.90;;;;;;5101736;28;20489;-48
2022/12/24 06:06:21;;;;;;;47.88;5.63;;;8.20;99.90;;;;;;5102933;28;20035;-52
2022/12/24 06:08:48;;;;;;;31.85;5.25;;;8.60;99.90;;;;;;5101737;28;20040;-50
2022/12/24 06:11:16;;;;;;;34.00;5.20;;;8.20;99.90;;;;;;5102225;28;20118;-46
2022/12/24 06:13:42;;;;;;;33.75;5.18;;;8.60;99.90;;;;;;5103043;28;20032;-48
2022/12/24 06:16:16;;;;;;;38.75;5.05;;;8.50;99.90;;;;;;5101972;28;20039;-48
2022/12/24 06:18:43;;;;;;;38.85;6.03;;;8.10;99.90;;;;;;5100718;28;20039;-49
2022/12/24 06:21:09;;;;;;;37.15;5.35;;;8.30;99.90;;;;;;5101247;28;20810;-48
2022/12/24 06:23:37;;;;;;;38.08;5.40;;;8.10;99.90;;;;;;5101663;28;20035;-48
2022/12/24 06:26:05;;;;;;;33.10;5.72;;;8.20;99.90;;;;;;5100431;28;20071;-47
2022/12/24 06:28:34;;;;;;;41.22;5.00;;;8.40;99.90;;;;;;5100941;28;20554;-47
2022/12/24 06:31:00;;;;;;;36.10;5.60;;;8.50;99.90;;;;;;5099884;28;20040;-50
2022/12/24 06:33:26;;;;;;;35.28;5.80;;;8.10;99.90;;;;;;5099630;28;20032;-52
2022/12/24 06:35:52;;;;;;;42.08;5.82;;;8.40;99.90;;;;;;5102010;28;20505;-49
2022/12/24 06:38:18;;;;;;;33.45;5.47;;;8.00;99.90;;;;;;5101315;28;20462;-48
2022/12/24 06:40:45;;;;;;;36.40;5.68;;;8.10;99.90;;;;;;5101021;28;20462;-50
2022/12/24 06:43:11;;;;;;;40.40;5.25;;;7.90;99.90;;;;;;5100858;28;20382;-47
2022/12/24 06:45:37;;;;;;;33.53;4.68;;;7.90;99.90;;;;;;5099488;28;20035;-50
2022/12/24 06:48:03;;;;;;;39.65;5.28;;;8.10;99.90;;;;;;5092955;28;20043;-46
2022/12/24 06:50:29;;;;;;;40.17;5.28;;;8.20;99.90;;;;;;5098812;28;20043;-48
2022/12/24 06:52:55;;;;;;;41.60;5.85;;;8.00;99.90;;;;;;5094662;28;20027;-48
2022/12/24 06:55:20;;;;;;;31.30;5.05;;;7.90;99.90;;;;;;5097502;28;20396;-46
2022/12/24 06:57:46;;;;;;;34.08;5.47;;;8.20;99.90;;;;;;5097335;28;20060;-47
2022/12/24 07:00:12;;;;;;;37.10;4.57;;;8.30;99.90;;;;;;5097386;28;20031;-49
2022/12/24 07:02:40;;;;;;;40.92;5.68;;;8.00;99.90;;;;;;5098580;28;20031;-48
2022/12/24 07:05:08;;;;;;;36.60;5.57;;;8.40;99.90;;;;;;5104365;28;20048;-49
2022/12/24 07:07:38;;;;;;;34.13;6.22;;;8.20;99.90;;;;;;5103713;28;20617;-51
2022/12/24 07:10:04;;;;;;;44.05;6.13;;;8.20;99.90;;;;;;5105059;28;20459;-48
2022/12/24 07:12:30;;;;;;;38.50;4.93;;;8.40;99.90;;;;;;5105093;28;20119;-49
2022/12/24 07:14:55;;;;;;;36.20;5.30;;;8.00;99.90;;;;;;5102063;28;20126;-49
2022/12/24 07:17:21;;;;;;;41.88;6.03;;;8.40;99.90;;;;;;5104697;28;20044;-51
2022/12/24 07:19:47;;;;;;;31.45;4.60;;;8.10;99.90;;;;;;5098122;28;20483;-49
2022/12/24 07:22:12;;;;;;;39.70;6.50;;;8.40;99.90;;;;;;5101227;28;20159;-48
2022/12/24 07:24:38;;;;;;;33.83;5.95;;;8.00;99.90;;;;;;5104320;28;20082;-47
2022/12/24 07:27:04;;;;;;;35.30;5.35;;;8.00;99.90;;;;;;5102990;28;20059;-48
2022/12/24 07:29:30;;;;;;;39.67;6.03;;;8.10;99.90;;;;;;5102775;28;20047;-49
2022/12/24 07:31:55;;;;;;;44.30;6.53;;;8.10;99.90;;;;;;5104205;28;20458;-48
2022/12/24 07:34:21;;;;;;;46.70;6.90;;;8.60;99.90;;;;;;5102153;28;20081;-48
2022/12/24 07:36:47;;;;;;;40.33;5.57;;;8.50;99.90;;;;;;5104189;28;20489;-48
2022/12/24 07:39:12;;;;;;;44.00;6.20;;;8.10;99.90;;;;;;5104358;28;20047;-50
2022/12/24 07:41:38;;;;;;;40.83;6.32;;;8.60;99.90;;;;;;5104250;28;20046;-48
2022/12/24 07:44:04;;;;;;;42.33;6.07;;;8.20;99.90;;;;;;5103985;28;20043;-48
2022/12/24 07:46:30;;;;;;;40.75;5.47;;;8.30;99.90;;;;;;5104102;28;20390;-47
2022/12/24 07:48:55;;;;;;;44.00;6.72;;;8.40;99.90;;;;;;5105705;27;20115;-48
2022/12/24 07:51:21;;;;;;;42.90;6.63;;;8.20;99.90;;;;;;5104517;28;20032;-48
2022/12/24 07:53:47;;;;;;;42.70;6.15;;;8.70;99.90;;;;;;5104876;28;20039;-47
2022/12/24 07:56:14;;;;;;;39.17;6.30;;;8.70;99.90;;;;;;5105352;28;20043;-48
2022/12/24 07:58:40;;;;;;;36.65;5.55;;;8.20;99.90;;;;;;5102377;27;20039;-47
2022/12/24 08:01:07;;;;;;;43.28;6.15;;;8.20;99.90;;;;;;5103425;28;20071;-49
2022/12/24 08:03:32;;;;;;;41.22;6.75;;;8.80;99.90;;;;;;5100705;28;20044;-49
2022/12/24 08:05:58;;;;;;;45.13;7.25;;;8.70;99.90;;;;;;5101529;28;20036;-47
2022/12/24 08:08:24;;;;;;;58.20;7.40;;;8.70;99.90;;;;;;5104367;28;20035;-48
2022/12/24 08:10:51;;;;;;;45.83;8.23;;;8.70;99.90;;;;;;5102997;28;20031;-50
2022/12/24 08:13:16;;;;;;;39.85;6.68;;;8.80;99.90;;;;;;5104537;28;20446;-48
2022/12/24 08:15:43;;;;;;;41.78;7.07;;;8.40;99.90;;;;;;5103797;28;20102;-48
2022/12/24 08:18:10;;;;;;;41.38;7.05;;;8.80;99.90;;;;;;5097338;28;20369;-48
2022/12/24 08:20:40;;;;;;;44.45;7.18;;;8.80;99.90;;;;;;5098603;28;20379;-49
2022/12/24 08:23:06;;;;;;;37.50;6.78;;;9.00;99.90;;;;;;5099493;28;20528;-50
2022/12/24 08:25:32;;;;;;;45.08;7.43;;;8.60;99.90;;;;;;5098532;28;20039;-49
2022/12/24 08:27:57;;;;;;;41.15;8.13;;;9.00;99.90;;;;;;5096241;28;20564;-51
2022/12/24 08:30:23;;;;;;;40.80;7.07;;;8.60;99.90;;;;;;5101696;28;20028;-50
2022/12/24 08:32:49;;;;;;;39.00;7.10;;;9.00;99.90;;;;;;5103090;28;20055;-50
2022/12/24 08:35:15;;;;;;;52.45;8.55;;;8.60;99.90;;;;;;5098469;28;20031;-50
2022/12/24 08:37:40;;;;;;;42.78;8.20;;;9.20;99.90;;;;;;5102944;28;20043;-47
2022/12/24 08:40:07;;;;;;;54.88;8.57;;;8.90;99.90;;;;;;5101337;28;20039;-52
2022/12/24 08:42:32;;;;;;;48.35;7.95;;;9.10;99.90;;;;;;5099592;28;20050;-52
2022/12/24 08:44:59;;;;;;;47.55;7.57;;;8.90;99.90;;;;;;5100212;28;20315;-48
2022/12/24 08:47:24;;;;;;;46.35;7.55;;;9.20;99.90;;;;;;5099195;28;20659;-48
2022/12/24 08:49:50;;;;;;;58.97;8.07;;;9.00;99.90;;;;;;5098033;27;20468;-50
2022/12/24 08:52:16;;;;;;;52.47;7.50;;;9.30;99.90;;;;;;5099795;28;20031;-49
2022/12/24 08:54:41;;;;;;;46.30;7.32;;;9.10;99.90;;;;;;5099503;27;20061;-51
2022/12/24 08:57:07;;;;;;;43.97;6.47;;;9.40;99.90;;;;;;5098659;28;20335;-49
2022/12/24 08:59:33;;;;;;;51.85;7.07;;;8.80;99.90;;;;;;5102471;28;20431;-47
2022/12/24 09:01:58;;;;;;;46.10;7.07;;;8.80;99.90;;;;;;5100830;28;20445;-49
2022/12/24 09:04:24;;;;;;;50.75;7.60;;;9.30;99.90;;;;;;5101924;27;20040;-48
2022/12/24 09:06:50;;;;;;;47.95;6.38;;;8.80;99.90;;;;;;5103142;28;20467;-49
2022/12/24 09:09:15;;;;;;;43.10;7.15;;;9.40;99.90;;;;;;5106769;28;20106;-49
2022/12/24 09:11:41;;;;;;;44.50;6.03;;;8.80;99.90;;;;;;5110345;28;20378;-47
2022/12/24 09:14:07;;;;;;;40.53;6.43;;;9.00;99.90;;;;;;5106962;27;20350;-50
2022/12/24 09:16:32;;;;;;;49.50;6.82;;;9.10;99.90;;;;;;5098575;27;20042;-47
2022/12/24 09:18:58;;;;;;;43.30;7.20;;;8.90;99.90;;;;;;5099533;28;20054;-47
2022/12/24 09:21:24;;;;;;;44.03;6.53;;;9.30;99.90;;;;;;5102170;28;20085;-50
2022/12/24 09:23:49;;;;;;;49.58;7.05;;;9.20;99.90;;;;;;5102163;28;20032;-47
2022/12/24 09:26:18;;;;;;;39.25;6.75;;;9.20;99.90;;;;;;5100329;27;20035;-48
2022/12/24 09:28:45;;;;;;;39.72;6.40;;;9.40;99.90;;;;;;5096880;27;21301;-52
2022/12/24 09:31:12;;;;;;;53.60;7.70;;;8.90;99.90;;;;;;5100410;27;20036;-54
2022/12/24 09:33:39;;;;;;;73.28;19.60;;;9.10;99.90;;;;;;5101253;28;20051;-50
2022/12/24 09:36:06;;;;;;;54.00;13.20;;;9.40;99.90;;;;;;5102494;28;20035;-52
2022/12/24 09:38:32;;;;;;;46.53;7.75;;;9.10;99.90;;;;;;5101178;28;20094;-49
2022/12/24 09:40:59;;;;;;;51.85;6.88;;;9.10;99.90;;;;;;5099232;28;20043;-48
2022/12/24 09:43:32;;;;;;;44.22;6.97;;;9.40;99.90;;;;;;5100554;28;20063;-49
2022/12/24 09:46:10;;;;;;;47.20;7.53;;;9.40;99.90;;;;;;5099878;28;20486;-48
2022/12/24 09:48:39;;;;;;;45.67;6.82;;;9.40;99.90;;;;;;5101261;28;20679;-51
2022/12/24 09:51:20;;;;;;;40.83;6.93;;;9.00;99.90;;;;;;5101498;28;20471;-50
2022/12/24 09:54:24;;;;;;;54.70;6.93;;;9.90;99.90;;;;;;5102193;28;20032;-48
2022/12/24 09:56:50;;;;;;;52.30;7.47;;;8.80;99.90;;;;;;5084950;28;20772;-48
2022/12/24 09:59:44;;;;;;;39.10;6.00;;;8.90;99.90;;;;;;5100629;28;20089;-52
2022/12/24 10:02:16;;;;;;;41.78;6.90;;;9.30;99.90;;;;;;5100494;28;20142;-48
2022/12/24 10:04:44;;;;;;;44.72;7.10;;;9.40;99.90;;;;;;5096311;28;20032;-51
2022/12/24 10:07:29;;;;;;;54.47;8.02;;;9.10;99.90;;;;;;5094073;28;20593;-52
2022/12/24 10:10:17;;;;;;;48.40;7.43;;;9.50;99.90;;;;;;5089881;28;20031;-48
2022/12/24 10:13:03;;;;;;;41.92;6.38;;;9.50;99.90;;;;;;5090207;28;20027;-48
2022/12/24 10:15:58;;;;;;;48.17;7.75;;;9.50;99.90;;;;;;5098846;28;20032;-48
2022/12/24 10:18:55;;;;;;;44.95;6.88;;;9.30;99.90;;;;;;5075119;28;20479;-47
2022/12/24 10:21:43;;;;;;;43.38;7.30;;;9.60;99.90;;;;;;5096932;28;20101;-51
2022/12/24 10:24:20;;;;;;;44.17;8.15;;;9.30;99.90;;;;;;5096769;28;20536;-48
2022/12/24 10:26:53;;;;;;;50.88;8.35;;;9.70;99.90;;;;;;5093602;28;20047;-48
2022/12/24 10:29:39;;;;;;;46.80;7.38;;;9.70;99.90;;;;;;5095309;28;20039;-50
2022/12/24 10:32:23;;;;;;;58.20;7.80;;;9.70;99.90;;;;;;5096666;28;20028;-48
2022/12/24 10:34:54;;;;;;;47.05;7.75;;;9.30;99.90;;;;;;5097059;28;20070;-47
2022/12/24 10:37:24;;;;;;;52.35;7.35;;;9.70;99.90;;;;;;5100004;28;20031;-49
2022/12/24 10:39:51;;;;;;;43.65;6.93;;;9.50;99.90;;;;;;5100112;28;20031;-49
2022/12/24 10:42:19;;;;;;;45.35;7.57;;;9.80;99.90;;;;;;5100036;28;20043;-49
2022/12/24 10:44:50;;;;;;;52.72;8.52;;;9.40;99.90;;;;;;5100603;28;20105;-48
2022/12/24 10:47:18;;;;;;;48.45;8.02;;;9.60;99.90;;;;;;5097772;28;20829;-49
2022/12/24 10:49:51;;;;;;;48.03;6.85;;;9.40;99.90;;;;;;5099440;28;20125;-48
2022/12/24 10:52:21;;;;;;;49.53;7.20;;;9.70;99.90;;;;;;5100248;28;20471;-52
2022/12/24 10:55:05;;;;;;;39.55;6.45;;;9.70;99.90;;;;;;5099165;28;20039;-50
2022/12/24 10:57:32;;;;;;;45.20;7.03;;;9.30;99.90;;;;;;5097875;28;20036;-47
2022/12/24 10:59:58;;;;;;;46.10;6.95;;;9.60;99.90;;;;;;5099792;28;20044;-49
2022/12/24 11:02:28;;;;;;;45.03;7.15;;;9.50;99.90;;;;;;5099808;28;20147;-49
2022/12/24 11:04:53;;;;;;;38.72;6.28;;;9.60;99.90;;;;;;5101441;28;20044;-49
2022/12/24 11:07:21;;;;;;;45.17;7.38;;;9.30;99.90;;;;;;5099597;28;20054;-49
2022/12/24 11:10:21;;;;;;;41.45;7.22;;;9.30;99.90;;;;;;5100435;28;20093;-50
2022/12/24 11:12:48;;;;;;;40.28;7.40;;;9.70;99.90;;;;;;5100246;28;20383;-48
2022/12/24 11:15:27;;;;;;;45.25;6.82;;;9.70;99.90;;;;;;5101606;28;20563;-47
2022/12/24 11:17:56;;;;;;;43.33;7.93;;;9.60;99.90;;;;;;5100890;28;20526;-47
2022/12/24 11:20:26;;;;;;;44.20;7.05;;;9.70;99.90;;;;;;5099516;28;20047;-48
2022/12/24 11:22:52;;;;;;;53.08;7.72;;;9.60;99.90;;;;;;5100271;28;20066;-48
2022/12/24 11:25:30;;;;;;;45.25;6.85;;;9.70;99.90;;;;;;5099972;28;20458;-49
2022/12/24 11:28:11;;;;;;;40.25;6.10;;;9.60;99.90;;;;;;5100325;28;20062;-48
2022/12/24 11:30:37;;;;;;;34.55;6.35;;;9.50;99.90;;;;;;5100247;28;20393;-48
2022/12/24 11:33:03;;;;;;;36.67;6.18;;;9.50;99.90;;;;;;5100613;28;20399;-48
2022/12/24 11:35:32;;;;;;;42.47;6.97;;;9.80;99.90;;;;;;5099703;28;20069;-47
2022/12/24 11:38:03;;;;;;;36.28;6.13;;;9.70;99.90;;;;;;5100609;28;20088;-49
2022/12/24 11:40:47;;;;;;;32.70;5.80;;;9.80;99.90;;;;;;5098662;28;20503;-47
2022/12/24 11:43:19;;;;;;;40.63;5.72;;;9.70;99.90;;;;;;5108084;28;20075;-47
2022/12/24 11:46:11;;;;;;;40.20;5.82;;;9.50;99.90;;;;;;5099112;28;20040;-48
2022/12/24 11:48:37;;;;;;;40.75;6.05;;;9.80;99.90;;;;;;5100214;28;20024;-49
2022/12/24 11:51:05;;;;;;;39.63;6.70;;;9.70;99.90;;;;;;5103228;28;20508;-50
2022/12/24 11:53:42;;;;;;;41.90;6.13;;;9.90;99.90;;;;;;5103893;28;20740;-49
2022/12/24 11:56:23;;;;;;;39.17;5.32;;;9.60;99.90;;;;;;5104349;27;20115;-48
2022/12/24 11:58:54;;;;;;;38.45;5.75;;;9.70;99.90;;;;;;5111816;28;20047;-49
2022/12/24 12:01:23;;;;;;;33.75;5.20;;;9.90;99.90;;;;;;5110201;28;20044;-48
2022/12/24 12:03:53;;;;;;;39.00;5.72;;;9.60;99.90;;;;;;5104822;28;20046;-47
2022/12/24 12:06:50;;;;;;;32.65;5.47;;;9.70;99.90;;;;;;5111012;28;20083;-48
2022/12/24 12:09:30;;;;;;;33.13;5.43;;;10.00;99.90;;;;;;5040362;27;20128;-51
2022/12/24 12:12:04;;;;;;;39.28;6.20;;;10.00;99.90;;;;;;5112532;28;20031;-50
2022/12/24 12:14:43;;;;;;;33.90;5.75;;;9.90;99.90;;;;;;5112767;28;20156;-51
2022/12/24 12:17:30;;;;;;;27.73;5.32;;;9.80;99.90;;;;;;5112207;28;20046;-49
2022/12/24 12:20:12;;;;;;;35.58;5.25;;;10.00;99.90;;;;;;5112188;27;20149;-48
2022/12/24 12:23:08;;;;;;;33.35;5.22;;;10.10;99.90;;;;;;5113622;28;20066;-50
2022/12/24 12:25:37;;;;;;;34.38;5.22;;;9.90;99.90;;;;;;5113567;28;20390;-50
2022/12/24 12:28:09;;;;;;;28.40;5.07;;;9.90;99.90;;;;;;5112964;28;20110;-52
2022/12/24 12:30:38;;;;;;;34.45;4.78;;;10.10;99.90;;;;;;5113513;28;20058;-47
2022/12/24 12:33:27;;;;;;;30.00;4.85;;;10.10;99.90;;;;;;5113390;27;20453;-48
2022/12/24 12:35:54;;;;;;;26.50;4.65;;;10.00;99.90;;;;;;5114257;27;20534;-51
2022/12/24 12:38:23;;;;;;;29.60;4.70;;;9.90;99.90;;;;;;5112951;27;20051;-48
2022/12/24 12:41:20;;;;;;;32.33;4.55;;;9.90;99.90;;;;;;5112672;28;20508;-50
2022/12/24 12:44:18;;;;;;;24.73;4.75;;;9.80;99.90;;;;;;5112845;28;20042;-49
2022/12/24 12:47:21;;;;;;;27.65;4.38;;;10.00;99.90;;;;;;5118179;27;20047;-47
2022/12/24 12:49:56;;;;;;;21.10;3.85;;;10.00;99.90;;;;;;5111691;28;20066;-47
2022/12/24 12:52:46;;;;;;;20.45;3.53;;;9.90;99.90;;;;;;5112861;28;20085;-48
2022/12/24 12:55:31;;;;;;;22.73;4.20;;;9.90;99.90;;;;;;5108137;27;20058;-49
2022/12/24 12:58:04;;;;;;;19.08;3.53;;;9.80;99.90;;;;;;5111872;28;20390;-48
2022/12/24 13:00:36;;;;;;;22.05;3.97;;;9.80;99.90;;;;;;5112379;28;20027;-48
2022/12/24 13:03:23;;;;;;;20.92;3.35;;;10.00;99.90;;;;;;5110548;28;20048;-47
2022/12/24 13:06:37;;;;;;;21.70;3.35;;;10.30;99.90;;;;;;5111574;28;20126;-50
2022/12/24 13:09:05;;;;;;;23.75;3.90;;;10.20;99.90;;;;;;5107182;28;20047;-49
2022/12/24 13:12:15;;;;;;;23.55;3.42;;;10.30;99.90;;;;;;5108878;28;20028;-49